Time;durP1;ratioP1;P1;durP2;ratioP2;P2;SDS_P1;SDS_P2;PMS_P1;PMS_P2;Temp;Humidity;BMP_temperature;BMP_pressure;BME280_temperature;BME280_humidity;BME280_pressure;Samples;Min_cycle;Max_cycle;Signal;HPM_P1;HPM_P2
2021/12/16 00:01:49;;;;;;;;;28.80;25.60;;;;;12.40;63.46;102956.81;2057000;28;45474;-59
2021/12/16 00:07:53;;;;;;;;;37.00;34.20;;;;;12.40;63.51;102957.72;2059436;28;47384;-58
2021/12/16 00:09:00;;;;;;;;;33.00;31.40;;;;;12.40;63.59;102963.03;2063075;28;47108;-59
2021/12/16 00:10:23;;;;;;;;;32.80;31.20;;;;;12.40;63.45;102959.47;2060009;28;47478;-59
2021/12/16 00:19:27;;;;;;;;;28.80;28.80;;;;;12.39;63.43;102955.94;2061846;28;47360;-59
2021/12/16 00:32:20;;;;;;;;;38.20;34.40;;;;;12.34;63.50;102957.69;2056697;28;47460;-59
2021/12/16 00:32:52;;;;;;;;;35.40;32.00;;;;;12.34;63.43;102961.25;2054706;28;47706;-59
2021/12/16 00:34:11;;;;;;;;;35.60;32.40;;;;;12.33;63.57;102962.13;2059156;28;47154;-58
2021/12/16 00:35:14;;;;;;;;;39.40;34.20;;;;;12.33;63.47;102959.47;2055818;28;48226;-58
2021/12/16 00:36:15;;;;;;;;;33.40;32.60;;;;;12.33;63.58;102951.47;2058334;28;47495;-58
2021/12/16 00:37:15;;;;;;;;;35.75;31.50;;;;;12.33;63.71;102955.91;2060612;28;47292;-58
2021/12/16 00:38:16;;;;;;;;;35.25;33.00;;;;;12.34;63.52;102963.91;2058325;28;47198;-58
2021/12/16 00:39:27;;;;;;;;;42.60;35.60;;;;;12.34;63.58;102958.56;2062713;28;47448;-59
2021/12/16 00:40:27;;;;;;;;;35.40;32.40;;;;;12.33;63.51;102962.13;2057717;28;48346;-58
2021/12/16 00:41:27;;;;;;;;;40.50;35.00;;;;;12.33;63.54;102954.13;2059892;28;46270;-59
2021/12/16 00:42:48;;;;;;;;;39.25;35.00;;;;;12.34;63.64;102955.03;2059581;28;48050;-59
2021/12/16 00:43:54;;;;;;;;;34.80;33.20;;;;;12.34;63.69;102955.91;2059826;28;47659;-59
2021/12/16 00:47:46;;;;;;;;;36.40;33.40;;;;;12.33;63.68;102958.56;2049637;28;48192;-59
2021/12/16 00:49:51;;;;;;;;;32.60;31.00;;;;;12.33;63.45;102958.56;2058212;28;47359;-61
2021/12/16 00:54:45;;;;;;;;;33.00;30.40;;;;;12.33;63.76;102953.25;2062278;28;47813;-59
2021/12/16 00:55:49;;;;;;;;;30.80;28.80;;;;;12.34;63.63;102950.59;2059437;28;46463;-59
2021/12/16 00:56:57;;;;;;;;;40.20;34.80;;;;;12.34;63.50;102958.56;2061825;28;46239;-61
2021/12/16 00:57:58;;;;;;;;;41.60;34.20;;;;;12.34;63.57;102944.38;2056685;28;46026;-59
2021/12/16 00:59:00;;;;;;;;;32.75;29.50;;;;;12.36;63.63;102950.59;2063596;28;47536;-59
2021/12/16 01:00:04;;;;;;;;;42.20;34.60;;;;;12.35;63.91;102952.38;2058383;28;47527;-57
2021/12/16 01:01:16;;;;;;;;;39.20;35.40;;;;;12.35;63.59;102949.69;2061769;28;47893;-59
2021/12/16 01:04:17;;;;;;;;;34.00;30.20;;;;;12.36;63.63;102951.47;2060275;28;48336;-60
2021/12/16 01:06:44;;;;;;;;;35.40;31.80;;;;;12.35;63.47;102944.38;2057856;28;48242;-59
2021/12/16 01:08:02;;;;;;;;;38.60;32.60;;;;;12.36;63.71;102945.28;2060766;28;48497;-59
2021/12/16 01:35:17;;;;;;;;;37.00;34.20;;;;;12.41;63.72;102954.16;2029345;28;47497;-58
2021/12/16 01:50:01;;;;;;;;;34.00;29.40;;;;;12.43;63.66;102959.50;2057991;28;48177;-59
2021/12/16 01:51:18;;;;;;;;;30.00;30.00;;;;;12.43;63.76;102962.16;2054163;28;47696;-59
2021/12/16 01:57:41;;;;;;;;;36.40;34.00;;;;;12.45;63.38;102958.66;2035639;28;46264;-58
2021/12/16 01:58:42;;;;;;;;;37.20;34.00;;;;;12.46;63.77;102971.09;2054418;28;47963;-59
2021/12/16 01:59:46;;;;;;;;;35.50;32.25;;;;;12.46;63.72;102962.19;2042224;28;47611;-58
2021/12/16 02:01:40;;;;;;;;;34.20;30.40;;;;;12.47;63.64;102956.88;2053612;28;47984;-56
2021/12/16 02:02:34;;;;;;;;;34.60;31.40;;;;;12.47;63.70;102962.22;2051668;28;47658;-60
2021/12/16 02:03:42;;;;;;;;;33.00;31.20;;;;;12.49;63.53;102962.22;2060641;28;47211;-58
2021/12/16 02:05:09;;;;;;;;;35.00;32.40;;;;;12.49;63.62;102970.19;2062047;28;48434;-60
2021/12/16 02:06:23;;;;;;;;;31.40;28.80;;;;;12.51;63.57;102961.34;2055335;28;47372;-60
2021/12/16 02:07:45;;;;;;;;;33.40;29.80;;;;;12.52;63.57;102968.44;2057977;28;47504;-61
2021/12/16 02:08:45;;;;;;;;;35.80;32.20;;;;;12.53;63.57;102962.22;2061017;28;47988;-59
2021/12/16 02:09:46;;;;;;;;;37.60;32.20;;;;;12.53;63.54;102966.66;2060389;28;47140;-59
2021/12/16 02:11:01;;;;;;;;;35.00;32.00;;;;;12.55;63.75;102970.22;2061892;28;47972;-59
2021/12/16 02:13:43;;;;;;;;;39.60;33.60;;;;;12.55;63.51;102971.13;2058542;28;47416;-59
2021/12/16 02:28:24;;;;;;;;;34.40;32.60;;;;;12.56;63.38;102969.34;2049521;28;47850;-58
2021/12/16 02:36:35;;;;;;;;;42.60;35.60;;;;;12.54;63.30;102964.00;2054168;28;48394;-58
2021/12/16 02:37:44;;;;;;;;;37.20;34.20;;;;;12.53;63.19;102962.22;2049938;28;48403;-59
2021/12/16 02:38:46;;;;;;;;;32.40;29.40;;;;;12.55;63.23;102967.56;2054145;28;48325;-58
2021/12/16 02:39:47;;;;;;;;;37.20;33.60;;;;;12.54;63.25;102963.13;2051548;28;47543;-58
2021/12/16 02:40:48;;;;;;;;;37.50;34.00;;;;;12.54;63.36;102966.66;2055105;28;47512;-59
2021/12/16 02:41:51;;;;;;;;;36.25;33.00;;;;;12.54;63.33;102971.09;2052969;28;47116;-58
2021/12/16 02:48:38;;;;;;;;;38.60;34.40;;;;;12.54;63.36;102961.34;2053095;28;47568;-60
2021/12/16 02:49:39;;;;;;;;;40.80;36.00;;;;;12.54;63.39;102969.34;2052433;28;47172;-58
2021/12/16 02:50:40;;;;;;;;;39.00;33.80;;;;;12.56;63.14;102970.22;2055287;28;48295;-58
2021/12/16 02:51:40;;;;;;;;;43.50;35.75;;;;;12.55;63.29;102976.44;2049957;28;48161;-58
2021/12/16 02:52:41;;;;;;;;;36.75;34.00;;;;;12.56;63.47;102972.00;2053932;28;48041;-60
2021/12/16 02:53:48;;;;;;;;;41.00;34.75;;;;;12.55;63.32;102972.88;2051804;28;47501;-58
2021/12/16 02:54:49;;;;;;;;;44.60;37.00;;;;;12.55;63.34;102968.44;2055378;28;48883;-57
2021/12/16 02:55:49;;;;;;;;;39.75;34.25;;;;;12.55;63.49;102965.78;2051513;28;47401;-58
2021/12/16 02:56:50;;;;;;;;;37.00;34.00;;;;;12.55;63.28;102968.44;2051529;28;47173;-58
2021/12/16 02:57:59;;;;;;;;;34.25;31.50;;;;;12.56;63.25;102977.34;2053297;28;47663;-59
2021/12/16 02:59:00;;;;;;;;;41.20;33.80;;;;;12.55;63.33;102964.91;2049112;28;48449;-58
2021/12/16 03:00:01;;;;;;;;;40.00;33.60;;;;;12.55;63.33;102971.13;2051437;28;47614;-59
2021/12/16 03:01:13;;;;;;;;;41.80;36.00;;;;;12.55;63.34;102971.13;2045725;28;47141;-58
2021/12/16 03:02:17;;;;;;;;;45.20;36.00;;;;;12.55;63.28;102968.44;2042854;28;47644;-59
2021/12/16 03:03:18;;;;;;;;;41.80;35.60;;;;;12.55;63.32;102968.44;2054779;28;47147;-59
2021/12/16 03:04:20;;;;;;;;;37.00;33.60;;;;;12.56;63.26;102966.69;2053052;28;47899;-58
2021/12/16 03:05:22;;;;;;;;;41.40;36.80;;;;;12.55;63.31;102968.44;2054592;28;47569;-60
2021/12/16 03:06:23;;;;;;;;;41.00;34.80;;;;;12.55;63.25;102963.13;2052624;28;46360;-59
2021/12/16 03:07:24;;;;;;;;;45.20;36.40;;;;;12.54;63.43;102966.66;2052976;28;47478;-60
2021/12/16 03:08:25;;;;;;;;;41.40;36.40;;;;;12.53;63.20;102964.91;2053866;28;47067;-59
2021/12/16 03:10:32;;;;;;;;;40.60;35.40;;;;;12.54;63.37;102973.78;2054183;28;46865;-60
2021/12/16 03:15:32;;;;;;;;;43.00;35.00;;;;;12.53;63.30;102969.34;2060374;28;47332;-59
2021/12/16 03:17:49;;;;;;;;;45.60;37.20;;;;;12.53;63.37;102966.66;2059760;28;48332;-58
2021/12/16 03:19:06;;;;;;;;;41.40;36.80;;;;;12.53;63.52;102975.56;2062809;28;47174;-59
2021/12/16 03:20:26;;;;;;;;;43.60;36.20;;;;;12.53;63.46;102978.22;2066320;28;47566;-59
2021/12/16 03:21:32;;;;;;;;;47.20;39.40;;;;;12.53;63.57;102972.88;2060130;28;48401;-61
2021/12/16 03:22:52;;;;;;;;;47.80;38.20;;;;;12.53;63.52;102980.88;2060508;28;47344;-60
2021/12/16 03:27:47;;;;;;;;;46.40;36.80;;;;;12.52;63.45;102978.22;2059332;28;47049;-58
2021/12/16 03:36:32;;;;;;;;;48.00;39.00;;;;;12.50;63.64;102966.66;2061275;28;47155;-59
2021/12/16 03:37:32;;;;;;;;;46.60;37.80;;;;;12.50;63.68;102977.31;2058593;28;48175;-58
2021/12/16 03:38:37;;;;;;;;;44.75;37.50;;;;;12.50;63.66;102980.88;2060274;28;47568;-58
2021/12/16 03:39:40;;;;;;;;;47.00;39.40;;;;;12.51;63.60;102982.66;2060342;28;47941;-58
2021/12/16 03:40:41;;;;;;;;;46.20;38.00;;;;;12.50;63.65;102972.88;2062078;28;48215;-59
2021/12/16 03:41:41;;;;;;;;;45.75;37.50;;;;;12.51;63.55;102972.00;2059757;28;48000;-59
2021/12/16 03:42:56;;;;;;;;;45.25;39.50;;;;;12.51;63.45;102969.31;2063560;28;47909;-62
2021/12/16 03:43:59;;;;;;;;;36.60;34.00;;;;;12.50;63.43;102970.22;2057505;28;47461;-59
2021/12/16 03:46:25;;;;;;;;;49.00;40.60;;;;;12.51;63.50;102973.75;2055934;28;47445;-59
2021/12/16 03:46:34;;;;;;;;;45.40;37.20;;;;;12.50;63.50;102971.97;2058833;28;47692;-58
2021/12/16 03:47:42;;;;;;;;;23.40;20.60;;;;;12.49;63.48;102972.88;2059076;28;47999;-61
2021/12/16 03:48:58;;;;;;;;;51.40;41.00;;;;;12.49;63.68;102978.19;2061755;28;48322;-59
2021/12/16 03:50:00;;;;;;;;;47.40;37.20;;;;;12.48;63.50;102977.31;2056527;28;48623;-60
2021/12/16 03:51:04;;;;;;;;;46.60;38.80;;;;;12.48;63.72;102976.41;2060813;28;47353;-57
2021/12/16 03:52:08;;;;;;;;;51.20;41.80;;;;;12.48;63.72;102973.75;2055713;28;48363;-58
2021/12/16 03:53:09;;;;;;;;;42.80;35.40;;;;;12.48;63.54;102969.31;2063902;28;48402;-58
2021/12/16 03:54:15;;;;;;;;;46.20;39.80;;;;;12.49;63.68;102971.09;2058037;28;47665;-59
2021/12/16 03:55:16;;;;;;;;;47.60;40.80;;;;;12.50;63.64;102971.97;2063278;28;45708;-59
2021/12/16 03:56:18;;;;;;;;;45.80;37.80;;;;;12.50;63.69;102969.31;2060271;28;47271;-58
2021/12/16 03:57:22;;;;;;;;;44.80;37.00;;;;;12.51;63.82;102973.75;2062134;28;48685;-58
2021/12/16 03:58:22;;;;;;;;;47.60;39.20;;;;;12.52;63.80;102975.53;2062717;28;48517;-59
2021/12/16 03:59:26;;;;;;;;;48.00;39.75;;;;;12.52;63.39;102975.53;2062115;28;46741;-58
2021/12/16 04:00:31;;;;;;;;;49.40;40.80;;;;;12.51;63.59;102979.09;2059989;28;47042;-60
2021/12/16 04:01:32;;;;;;;;;47.20;39.20;;;;;12.49;63.60;102975.53;2057250;28;47340;-58
2021/12/16 04:02:34;;;;;;;;;50.25;40.75;;;;;12.48;63.66;102971.97;2060268;28;47923;-58
2021/12/16 04:03:35;;;;;;;;;51.20;43.00;;;;;12.48;63.56;102968.44;2060690;28;47238;-60
2021/12/16 04:04:37;;;;;;;;;48.00;40.20;;;;;12.47;63.64;102967.53;2062993;28;47507;-59
2021/12/16 04:05:38;;;;;;;;;48.40;39.80;;;;;12.47;63.80;102970.19;2060394;28;47384;-58
2021/12/16 04:06:40;;;;;;;;;48.80;40.40;;;;;12.46;63.62;102970.19;2061820;28;47285;-59
2021/12/16 04:07:42;;;;;;;;;48.20;40.00;;;;;12.46;63.82;102971.09;2059097;28;48108;-60
2021/12/16 04:08:42;;;;;;;;;44.00;37.20;;;;;12.47;63.77;102974.63;2061333;28;47348;-57
2021/12/16 04:09:43;;;;;;;;;48.25;39.25;;;;;12.46;63.77;102970.19;2061179;28;47356;-57
2021/12/16 04:10:52;;;;;;;;;46.40;36.60;;;;;12.46;63.90;102973.75;2062865;28;46233;-58
2021/12/16 04:12:03;;;;;;;;;49.80;41.00;;;;;12.47;63.87;102982.63;2060555;28;48225;-58
2021/12/16 04:13:07;;;;;;;;;46.80;39.80;;;;;12.46;63.70;102973.75;2061755;28;48520;-58
2021/12/16 04:14:11;;;;;;;;;48.20;40.20;;;;;12.47;63.69;102980.84;2058089;28;47792;-58
2021/12/16 04:15:12;;;;;;;;;47.40;38.80;;;;;12.47;63.78;102977.28;2063542;28;46476;-59
2021/12/16 04:16:12;;;;;;;;;45.50;36.50;;;;;12.46;63.79;102978.19;2059343;28;47178;-59
2021/12/16 04:17:14;;;;;;;;;47.00;38.50;;;;;12.46;63.78;102976.41;2051421;28;47361;-59
2021/12/16 04:18:14;;;;;;;;;48.00;40.00;;;;;12.46;63.90;102981.75;2050048;28;47584;-59
2021/12/16 04:19:22;;;;;;;;;46.00;39.75;;;;;12.48;64.00;102973.75;2059968;28;46406;-58
2021/12/16 04:20:23;;;;;;;;;43.00;38.20;;;;;12.47;63.70;102974.63;2062252;28;47329;-58
2021/12/16 04:21:26;;;;;;;;;38.60;35.20;;;;;12.47;63.89;102983.50;2059854;28;47302;-59
2021/12/16 04:22:35;;;;;;;;;45.60;37.40;;;;;12.47;63.92;102978.19;2059212;28;47798;-59
2021/12/16 04:23:35;;;;;;;;;43.60;36.80;;;;;12.48;63.82;102979.06;2059974;28;46913;-58
2021/12/16 04:24:37;;;;;;;;;42.25;37.25;;;;;12.46;63.73;102980.84;2062785;28;48463;-58
2021/12/16 04:25:42;;;;;;;;;46.80;39.60;;;;;12.46;63.86;102976.41;2061981;28;48052;-57
2021/12/16 04:26:45;;;;;;;;;48.80;41.00;;;;;12.47;63.70;102978.19;2059332;28;46268;-59
2021/12/16 04:27:48;;;;;;;;;43.60;37.00;;;;;12.47;63.92;102977.28;2058188;28;47203;-58
2021/12/16 04:28:49;;;;;;;;;47.40;39.80;;;;;12.48;63.84;102979.06;2062899;28;47073;-58
2021/12/16 04:29:49;;;;;;;;;44.50;38.50;;;;;12.47;63.80;102975.53;2058676;28;47326;-58
2021/12/16 04:30:50;;;;;;;;;47.00;39.50;;;;;12.47;63.81;102977.28;2062737;28;47246;-58
2021/12/16 04:31:53;;;;;;;;;45.40;38.20;;;;;12.48;63.86;102979.97;2055816;28;47094;-59
2021/12/16 04:32:54;;;;;;;;;50.60;40.80;;;;;12.48;63.69;102979.97;2063177;28;48707;-58
2021/12/16 04:33:54;;;;;;;;;47.50;39.75;;;;;12.49;63.75;102980.84;2058565;28;47028;-59
2021/12/16 04:34:55;;;;;;;;;48.00;39.50;;;;;12.48;63.96;102977.31;2063699;28;48480;-59
2021/12/16 04:35:56;;;;;;;;;44.25;38.50;;;;;12.49;63.78;102984.41;2058599;28;47472;-59
2021/12/16 04:36:57;;;;;;;;;49.50;40.50;;;;;12.49;63.82;102980.84;2059417;28;47984;-59
2021/12/16 04:37:58;;;;;;;;;47.80;40.80;;;;;12.49;63.83;102983.53;2060442;28;46516;-58
2021/12/16 04:39:01;;;;;;;;;49.40;40.60;;;;;12.49;63.74;102983.53;2063523;28;46844;-58
2021/12/16 04:40:07;;;;;;;;;44.40;37.80;;;;;12.49;64.11;102981.75;2057878;28;47517;-59
2021/12/16 04:41:11;;;;;;;;;47.00;40.00;;;;;12.48;64.06;102985.28;2061254;28;46906;-58
2021/12/16 04:42:14;;;;;;;;;48.80;40.00;;;;;12.49;63.78;102988.84;2056464;28;47505;-58
2021/12/16 04:43:23;;;;;;;;;45.80;39.40;;;;;12.48;63.81;102990.63;2063046;28;48518;-58
2021/12/16 04:44:26;;;;;;;;;46.60;37.80;;;;;12.48;63.83;102985.28;2065791;28;47493;-59
2021/12/16 04:45:27;;;;;;;;;45.00;38.20;;;;;12.50;63.84;102983.53;2061514;28;48159;-58
2021/12/16 04:46:31;;;;;;;;;46.20;37.00;;;;;12.50;64.01;102985.31;2060953;28;48474;-59
2021/12/16 04:47:32;;;;;;;;;43.60;36.00;;;;;12.50;63.96;102994.19;2058548;28;47838;-59
2021/12/16 04:48:32;;;;;;;;;47.75;41.75;;;;;12.51;63.92;102997.72;2059666;28;46797;-59
2021/12/16 04:49:34;;;;;;;;;45.75;39.50;;;;;12.50;63.84;102991.50;2061145;28;47259;-59
2021/12/16 04:50:35;;;;;;;;;46.40;39.40;;;;;12.51;64.00;102995.06;2060969;28;46261;-58
2021/12/16 04:51:38;;;;;;;;;48.25;39.50;;;;;12.51;63.98;102995.97;2058261;28;45591;-59
2021/12/16 04:52:39;;;;;;;;;47.40;39.00;;;;;12.51;63.74;102987.06;2060432;28;47510;-58
2021/12/16 04:53:40;;;;;;;;;47.75;41.00;;;;;12.52;64.11;102992.41;2059740;28;48114;-58
2021/12/16 04:54:41;;;;;;;;;46.25;38.00;;;;;12.52;63.88;102989.75;2061504;28;46979;-58
2021/12/16 04:55:42;;;;;;;;;47.60;40.80;;;;;12.51;64.06;102989.75;2059585;28;47317;-57
2021/12/16 04:56:42;;;;;;;;;48.75;41.75;;;;;12.53;63.98;102987.97;2059298;28;48344;-59
2021/12/16 04:57:43;;;;;;;;;46.50;39.50;;;;;12.53;63.97;102987.97;2059570;28;48152;-59
2021/12/16 04:58:46;;;;;;;;;47.40;39.00;;;;;12.52;64.10;102989.75;2063066;28;47326;-58
2021/12/16 04:59:47;;;;;;;;;47.40;39.00;;;;;12.52;63.96;102992.41;2058626;28;47513;-58
2021/12/16 05:00:47;;;;;;;;;49.00;39.75;;;;;12.53;63.98;102990.63;2062506;28;48687;-58
2021/12/16 05:01:53;;;;;;;;;45.50;38.25;;;;;12.53;63.93;102990.63;2056966;28;47663;-57
2021/12/16 05:02:54;;;;;;;;;50.60;42.00;;;;;12.51;64.01;102998.63;2063264;28;48256;-59
2021/12/16 05:03:56;;;;;;;;;46.75;38.75;;;;;12.52;63.93;102995.06;2059265;28;47320;-58
2021/12/16 05:04:56;;;;;;;;;46.00;39.60;;;;;12.53;63.91;102991.53;2063459;28;47244;-58
2021/12/16 05:05:57;;;;;;;;;47.00;39.00;;;;;12.53;63.87;102994.19;2057489;28;46806;-59
2021/12/16 05:06:58;;;;;;;;;42.00;37.00;;;;;12.54;63.82;102998.63;2054598;28;47374;-59
2021/12/16 05:07:58;;;;;;;;;47.25;38.75;;;;;12.53;63.96;102996.84;2056902;28;46268;-62
2021/12/16 05:08:59;;;;;;;;;47.25;39.25;;;;;12.53;63.74;102991.53;2063580;28;47412;-59
2021/12/16 05:10:09;;;;;;;;;48.60;41.00;;;;;12.54;63.90;102992.41;2061060;28;47718;-58
2021/12/16 05:11:13;;;;;;;;;45.60;38.60;;;;;12.54;63.91;103003.06;2060957;28;48405;-59
2021/12/16 05:12:17;;;;;;;;;43.60;37.40;;;;;12.55;63.63;102999.53;2059536;28;47361;-57
2021/12/16 05:13:22;;;;;;;;;44.60;37.40;;;;;12.54;63.82;103001.28;2053255;28;45419;-59
2021/12/16 05:14:23;;;;;;;;;47.20;38.60;;;;;12.56;63.86;103003.97;2054127;28;47461;-60
2021/12/16 05:15:31;;;;;;;;;41.00;36.25;;;;;12.56;63.83;103003.97;2061688;28;47383;-60
2021/12/16 05:16:32;;;;;;;;;44.80;38.60;;;;;12.54;63.80;102998.63;2060128;28;46934;-59
2021/12/16 05:17:39;;;;;;;;;42.25;36.25;;;;;12.54;63.82;103013.72;2061398;28;47563;-58
2021/12/16 05:18:40;;;;;;;;;42.00;36.40;;;;;12.54;63.84;103003.06;2062552;28;48441;-58
2021/12/16 05:19:49;;;;;;;;;40.40;34.40;;;;;12.54;63.94;103001.28;2058603;28;46246;-58
2021/12/16 05:20:50;;;;;;;;;42.40;37.60;;;;;12.55;64.12;103005.75;2062118;28;47491;-59
2021/12/16 05:21:59;;;;;;;;;48.80;39.20;;;;;12.55;63.94;102999.53;2058819;28;48403;-59
2021/12/16 05:24:27;;;;;;;;;44.80;38.20;;;;;12.56;64.04;103006.63;2062096;28;48035;-58
2021/12/16 05:26:31;;;;;;;;;44.20;36.40;;;;;12.56;63.98;103003.97;2060340;28;47440;-59
2021/12/16 05:27:32;;;;;;;;;47.00;39.75;;;;;12.56;63.94;103003.97;2058317;28;48131;-58
2021/12/16 05:28:33;;;;;;;;;46.80;38.20;;;;;12.55;63.69;103007.50;2059738;28;48800;-59
2021/12/16 05:29:33;;;;;;;;;43.50;36.25;;;;;12.54;64.02;103006.63;2055268;28;48366;-58
2021/12/16 05:30:35;;;;;;;;;44.50;37.50;;;;;12.56;64.00;103010.19;2060533;28;47169;-59
2021/12/16 05:31:37;;;;;;;;;48.20;38.40;;;;;12.56;63.91;103015.50;2058999;28;45967;-59
2021/12/16 05:32:39;;;;;;;;;45.40;37.40;;;;;12.56;63.98;103014.63;2062878;28;47483;-59
2021/12/16 05:33:40;;;;;;;;;43.20;36.40;;;;;12.57;63.82;103021.72;2059510;28;47441;-59
2021/12/16 05:34:40;;;;;;;;;50.25;39.50;;;;;12.57;63.97;103014.63;2054469;28;48225;-59
2021/12/16 05:35:42;;;;;;;;;45.75;39.25;;;;;12.58;63.71;103019.09;2053138;28;47050;-59
2021/12/16 05:36:42;;;;;;;;;45.60;38.00;;;;;12.58;63.85;103021.78;2059361;28;48186;-59
2021/12/16 05:37:44;;;;;;;;;45.50;38.50;;;;;12.57;63.97;103019.97;2059379;28;46965;-59
2021/12/16 05:38:46;;;;;;;;;37.20;33.80;;;;;12.57;63.94;103009.31;2062813;28;47756;-59
2021/12/16 05:39:46;;;;;;;;;48.20;38.80;;;;;12.59;63.83;103014.66;2058439;28;47513;-59
2021/12/16 05:40:47;;;;;;;;;45.25;35.75;;;;;12.60;63.88;103020.00;2062397;28;45381;-61
2021/12/16 05:41:48;;;;;;;;;46.50;37.25;;;;;12.60;63.77;103024.44;2058284;28;46016;-59
2021/12/16 05:42:49;;;;;;;;;46.40;37.80;;;;;12.61;63.95;103018.22;2062274;28;48515;-59
2021/12/16 05:43:50;;;;;;;;;44.50;38.00;;;;;12.59;63.98;103023.56;2059177;28;48029;-58
2021/12/16 05:44:51;;;;;;;;;48.20;39.80;;;;;12.60;63.76;103025.31;2063044;28;47660;-59
2021/12/16 05:45:54;;;;;;;;;38.75;35.75;;;;;12.61;63.84;103026.22;2057908;28;46460;-59
2021/12/16 05:46:54;;;;;;;;;42.20;34.60;;;;;12.59;63.94;103031.53;2058652;28;47271;-59
2021/12/16 05:47:58;;;;;;;;;56.50;45.50;;;;;12.60;64.09;103035.97;2057559;28;45591;-59
2021/12/16 05:49:00;;;;;;;;;52.40;42.20;;;;;12.60;64.01;103032.44;2063366;28;45343;-60
2021/12/16 05:50:03;;;;;;;;;49.80;40.60;;;;;12.60;63.97;103030.66;2057583;28;47415;-59
2021/12/16 05:51:16;;;;;;;;;48.20;40.60;;;;;12.60;63.98;103027.09;2053566;28;47153;-59
2021/12/16 05:52:16;;;;;;;;;47.20;37.60;;;;;12.60;63.89;103025.31;2053971;28;47069;-59
2021/12/16 05:53:17;;;;;;;;;45.50;37.75;;;;;12.61;63.84;103031.53;2061695;28;48402;-58
2021/12/16 05:54:21;;;;;;;;;48.75;40.50;;;;;12.60;64.07;103027.09;2062466;28;48462;-59
2021/12/16 05:55:22;;;;;;;;;44.00;38.60;;;;;12.60;63.93;103027.09;2061438;28;47602;-60
2021/12/16 05:56:23;;;;;;;;;45.00;38.80;;;;;12.60;63.86;103028.00;2059926;28;47923;-57
2021/12/16 05:57:24;;;;;;;;;46.25;37.50;;;;;12.61;63.89;103028.88;2059094;28;47143;-59
2021/12/16 05:58:25;;;;;;;;;47.25;40.75;;;;;12.60;63.98;103030.66;2060181;28;47182;-58
2021/12/16 05:59:26;;;;;;;;;45.60;39.60;;;;;12.60;63.96;103038.66;2062481;28;47550;-58
2021/12/16 06:00:34;;;;;;;;;47.00;39.25;;;;;12.60;63.82;103038.66;2060166;28;47073;-57
2021/12/16 06:01:38;;;;;;;;;47.80;40.40;;;;;12.61;63.99;103042.19;2058854;28;48212;-59
2021/12/16 06:02:40;;;;;;;;;47.80;40.20;;;;;12.61;63.96;103036.88;2063716;28;48156;-59
2021/12/16 06:03:43;;;;;;;;;43.20;35.60;;;;;12.61;63.96;103034.22;2060160;28;47537;-59
2021/12/16 06:04:43;;;;;;;;;47.00;39.60;;;;;12.61;63.87;103036.88;2063553;28;47206;-59
2021/12/16 06:05:44;;;;;;;;;46.25;38.25;;;;;12.60;64.01;103035.97;2060865;28;48220;-64
2021/12/16 06:06:44;;;;;;;;;49.75;42.50;;;;;12.59;64.01;103039.53;2059377;28;46934;-59
2021/12/16 06:07:45;;;;;;;;;55.00;43.75;;;;;12.60;64.10;103035.09;2060144;28;47298;-59
2021/12/16 06:08:47;;;;;;;;;50.20;42.40;;;;;12.60;64.00;103038.66;2063065;28;48168;-59
2021/12/16 06:09:48;;;;;;;;;51.00;42.00;;;;;12.60;64.05;103043.97;2062342;28;48536;-58
2021/12/16 06:12:00;;;;;;;;;47.60;37.20;;;;;12.60;64.03;103045.75;2060013;28;47821;-59
2021/12/16 06:13:04;;;;;;;;;43.80;37.80;;;;;12.60;63.93;103049.31;2064289;28;47531;-59
2021/12/16 06:15:33;;;;;;;;;35.80;33.60;;;;;12.61;64.10;103055.53;2062469;28;48347;-59
2021/12/16 06:27:12;;;;;;;;;42.40;36.80;;;;;12.60;63.93;103041.31;2059706;28;47305;-58
2021/12/16 06:28:12;;;;;;;;;40.00;34.20;;;;;12.60;63.90;103040.41;2058678;28;47837;-58
2021/12/16 06:29:13;;;;;;;;;39.00;36.00;;;;;12.60;63.98;103049.31;2064246;28;48520;-59
2021/12/16 06:30:19;;;;;;;;;43.50;36.00;;;;;12.61;63.99;103050.19;2060849;28;49519;-59
2021/12/16 06:31:19;;;;;;;;;36.20;32.80;;;;;12.60;64.08;103041.31;2059291;28;45421;-58
2021/12/16 06:32:21;;;;;;;;;44.75;37.75;;;;;12.61;64.08;103043.09;2059290;28;47192;-61
2021/12/16 06:33:23;;;;;;;;;36.40;34.00;;;;;12.60;63.92;103043.97;2054465;28;47855;-59
2021/12/16 06:34:24;;;;;;;;;45.60;38.00;;;;;12.59;63.96;103042.19;2056855;28;48670;-60
2021/12/16 06:35:24;;;;;;;;;36.20;33.80;;;;;12.59;63.91;103033.31;2065447;28;48365;-59
2021/12/16 06:36:25;;;;;;;;;40.50;34.25;;;;;12.59;64.03;103042.19;2060326;28;47318;-60
2021/12/16 06:37:26;;;;;;;;;43.50;35.75;;;;;12.59;63.99;103050.19;2058063;28;47196;-60
2021/12/16 06:38:26;;;;;;;;;38.75;34.75;;;;;12.59;63.98;103051.97;2060293;28;47254;-60
2021/12/16 06:39:27;;;;;;;;;46.00;36.25;;;;;12.60;63.78;103043.97;2062253;28;48244;-59
2021/12/16 06:40:27;;;;;;;;;39.00;34.75;;;;;12.61;63.96;103034.22;2060440;28;47187;-58
2021/12/16 06:41:34;;;;;;;;;41.00;34.00;;;;;12.61;63.90;103039.53;2060102;28;47972;-59
2021/12/16 06:42:37;;;;;;;;;41.00;36.00;;;;;12.60;64.21;103043.97;2064332;28;47195;-59
2021/12/16 06:43:38;;;;;;;;;41.00;34.40;;;;;12.60;63.91;103046.63;2059875;28;47136;-57
2021/12/16 06:44:44;;;;;;;;;41.25;36.50;;;;;12.60;63.86;103041.31;2063816;28;47149;-59
2021/12/16 06:45:48;;;;;;;;;38.60;34.20;;;;;12.61;63.94;103037.75;2060052;28;46878;-58
2021/12/16 06:46:52;;;;;;;;;41.20;36.60;;;;;12.60;63.97;103035.97;2062635;28;47597;-58
2021/12/16 06:48:03;;;;;;;;;38.80;34.40;;;;;12.62;63.98;103038.66;2061360;28;47890;-58
2021/12/16 06:49:05;;;;;;;;;42.60;36.20;;;;;12.61;64.08;103048.41;2060461;28;47575;-59
2021/12/16 06:50:07;;;;;;;;;47.40;37.00;;;;;12.61;63.91;103048.41;2058452;28;48327;-61
2021/12/16 06:51:13;;;;;;;;;45.20;37.80;;;;;12.61;64.14;103043.09;2063023;28;47449;-57
2021/12/16 06:52:17;;;;;;;;;44.80;36.80;;;;;12.62;63.89;103046.66;2061205;28;46409;-61
2021/12/16 06:53:28;;;;;;;;;35.20;31.40;;;;;12.61;64.09;103048.41;2062844;28;48396;-60
2021/12/16 06:54:40;;;;;;;;;39.40;34.80;;;;;12.61;63.97;103043.09;2061034;28;46060;-60
2021/12/16 06:55:48;;;;;;;;;40.00;33.40;;;;;12.62;64.01;103049.31;2061381;28;48231;-58
2021/12/16 06:57:55;;;;;;;;;45.25;36.50;;;;;12.61;64.07;103055.53;2053550;28;48296;-58
2021/12/16 06:59:51;;;;;;;;;38.80;34.00;;;;;12.61;64.07;103060.84;2064006;28;45518;-63
2021/12/16 07:00:30;;;;;;;;;39.20;35.00;;;;;12.61;64.15;103052.84;2050951;28;47253;-59
2021/12/16 07:03:57;;;;;;;;;38.60;34.20;;;;;12.62;64.06;103054.63;2059767;28;47974;-58
2021/12/16 07:04:58;;;;;;;;;39.40;34.60;;;;;12.61;64.03;103048.41;2064117;28;46989;-59
2021/12/16 07:05:58;;;;;;;;;44.25;38.00;;;;;12.61;64.08;103052.84;2058001;28;47476;-60
2021/12/16 07:07:00;;;;;;;;;39.25;34.25;;;;;12.63;64.13;103059.09;2060230;28;48245;-59
2021/12/16 07:08:03;;;;;;;;;41.80;34.80;;;;;12.62;64.13;103058.19;2056925;28;46143;-61
2021/12/16 07:09:16;;;;;;;;;39.40;35.40;;;;;12.63;64.10;103062.63;2064358;28;47320;-65
2021/12/16 07:10:19;;;;;;;;;40.00;35.40;;;;;12.64;64.29;103061.75;2058969;28;47713;-58
2021/12/16 07:11:20;;;;;;;;;42.20;36.20;;;;;12.64;64.03;103068.84;2060650;28;47403;-64
2021/12/16 07:12:27;;;;;;;;;33.50;32.00;;;;;12.65;64.07;103062.66;2059460;28;48213;-64
2021/12/16 07:13:36;;;;;;;;;41.20;35.80;;;;;12.65;63.91;103065.31;2057793;28;47668;-59
2021/12/16 07:14:41;;;;;;;;;38.60;35.00;;;;;12.66;64.00;103062.66;2061567;28;47468;-59
2021/12/16 07:15:42;;;;;;;;;34.00;32.80;;;;;12.66;64.00;103060.00;2060292;28;47318;-58
2021/12/16 07:16:44;;;;;;;;;41.80;35.00;;;;;12.66;64.01;103061.75;2062615;28;48180;-58
2021/12/16 07:17:45;;;;;;;;;38.40;33.80;;;;;12.65;64.04;103060.88;2061968;28;47320;-60